createdAt,value
2017-07-11T00:00:25.769Z,17.91
2017-07-11T00:01:27.207Z,17.84
2017-07-11T00:02:28.630Z,17.85
2017-07-11T00:03:30.053Z,17.89
2017-07-11T00:04:31.479Z,17.88
2017-07-11T00:05:32.902Z,17.84
2017-07-11T00:06:34.323Z,17.89
2017-07-11T00:07:35.753Z,18.00
2017-07-11T00:08:37.171Z,18.09
2017-07-11T00:09:38.609Z,18.00
2017-07-11T00:10:40.027Z,18.17
2017-07-11T00:11:41.453Z,18.40
2017-07-11T00:12:42.875Z,18.36
2017-07-11T00:13:44.298Z,17.99
2017-07-11T00:14:45.718Z,17.89
2017-07-11T00:15:47.145Z,18.04
2017-07-11T00:16:48.634Z,17.87
2017-07-11T00:17:50.056Z,18.06
2017-07-11T00:18:51.487Z,17.99
2017-07-11T00:19:52.911Z,18.02
2017-07-11T00:20:54.333Z,18.04
2017-07-11T00:21:55.755Z,18.10
2017-07-11T00:22:57.187Z,18.07
2017-07-11T00:23:58.743Z,17.82
2017-07-11T00:25:00.166Z,17.71
2017-07-11T00:26:01.593Z,17.74
2017-07-11T00:27:03.051Z,17.79
2017-07-11T00:28:04.475Z,17.73
2017-07-11T00:29:05.899Z,17.84
2017-07-11T00:30:07.324Z,17.85
2017-07-11T00:31:08.845Z,17.73
2017-07-11T00:32:10.276Z,17.74
2017-07-11T00:33:11.695Z,17.70
2017-07-11T00:34:13.184Z,17.73
2017-07-11T00:35:14.603Z,17.78
2017-07-11T00:36:16.032Z,17.66
2017-07-11T00:37:17.493Z,17.71
2017-07-11T00:38:18.917Z,17.71
2017-07-11T00:39:20.346Z,17.62
2017-07-11T00:40:21.767Z,17.64
2017-07-11T00:41:23.192Z,17.55
2017-07-11T00:42:24.622Z,17.62
2017-07-11T00:43:26.044Z,17.66
2017-07-11T00:44:27.468Z,17.53
2017-07-11T00:45:28.894Z,17.69
2017-07-11T00:46:30.315Z,17.71
2017-07-11T00:47:31.748Z,17.69
2017-07-11T00:48:33.166Z,17.99
2017-07-11T00:49:34.603Z,18.03
2017-07-11T00:50:36.017Z,17.87
2017-07-11T00:51:37.439Z,17.73
2017-07-11T00:52:38.866Z,18.04
2017-07-11T00:53:40.284Z,18.06
2017-07-11T00:54:41.710Z,18.02
2017-07-11T00:55:43.135Z,18.00
2017-07-11T00:56:44.556Z,18.18
2017-07-11T00:57:45.979Z,18.17
2017-07-11T00:58:47.405Z,18.18
2017-07-11T00:59:48.828Z,18.15
2017-07-11T01:00:50.265Z,18.15
2017-07-11T01:01:51.686Z,18.09
2017-07-11T01:02:53.111Z,18.00
2017-07-11T01:03:54.534Z,17.99
2017-07-11T01:04:55.959Z,18.06
2017-07-11T01:05:57.376Z,18.17
2017-07-11T01:06:58.788Z,18.21
2017-07-11T01:08:00.213Z,17.99
2017-07-11T01:09:01.647Z,18.03
2017-07-11T01:10:03.071Z,18.24
2017-07-11T01:11:04.499Z,18.25
2017-07-11T01:12:05.923Z,18.04
2017-07-11T01:13:07.346Z,18.03
2017-07-11T01:14:08.762Z,17.99
2017-07-11T01:15:10.183Z,18.00
2017-07-11T01:16:11.600Z,17.89
2017-07-11T01:17:13.017Z,17.99
2017-07-11T01:18:14.441Z,18.12
2017-07-11T01:19:15.866Z,18.13
2017-07-11T01:20:17.287Z,18.24
2017-07-11T01:21:18.708Z,18.15
2017-07-11T01:22:20.136Z,17.91
2017-07-11T01:23:21.558Z,17.88
2017-07-11T01:24:22.994Z,18.00
2017-07-11T01:25:24.413Z,18.06
2017-07-11T01:26:25.849Z,18.03
2017-07-11T01:27:27.274Z,18.04
2017-07-11T01:28:28.711Z,17.84
2017-07-11T01:29:30.144Z,17.84
2017-07-11T01:30:31.573Z,17.92
2017-07-11T01:31:33.039Z,17.85
2017-07-11T01:32:34.425Z,18.07
2017-07-11T01:33:35.846Z,18.03
2017-07-11T01:34:37.277Z,17.99
2017-07-11T01:35:38.706Z,17.94
2017-07-11T01:36:40.137Z,17.88
2017-07-11T01:37:41.556Z,18.04
2017-07-11T01:38:42.988Z,18.19
2017-07-11T01:39:44.408Z,18.18
2017-07-11T01:40:45.828Z,18.03
2017-07-11T01:41:47.253Z,17.89
2017-07-11T01:42:48.709Z,17.92
2017-07-11T01:43:50.133Z,18.04
2017-07-11T01:44:51.561Z,17.95
2017-07-11T01:45:52.990Z,18.07
2017-07-11T01:46:54.412Z,18.06
2017-07-11T01:47:55.847Z,18.04
2017-07-11T01:48:57.270Z,18.03
2017-07-11T01:49:58.688Z,18.02
2017-07-11T01:51:00.115Z,18.03
2017-07-11T01:52:01.553Z,18.03
2017-07-11T01:53:02.975Z,18.06
2017-07-11T01:54:04.398Z,17.89
2017-07-11T01:55:05.828Z,17.94
2017-07-11T01:56:07.245Z,18.07
2017-07-11T01:57:08.667Z,18.17
2017-07-11T01:58:10.976Z,18.06
2017-07-11T01:59:12.402Z,18.06
2017-07-11T02:00:13.831Z,17.97
2017-07-11T02:01:15.255Z,18.02
2017-07-11T02:02:16.678Z,17.99
2017-07-11T02:03:18.111Z,18.00
2017-07-11T02:04:19.537Z,18.00
2017-07-11T02:05:20.956Z,18.10
2017-07-11T02:06:22.378Z,18.25
2017-07-11T02:07:23.808Z,18.29
2017-07-11T02:08:25.229Z,18.28
2017-07-11T02:09:26.651Z,18.33
2017-07-11T02:10:28.075Z,18.24
2017-07-11T02:11:29.502Z,18.25
2017-07-11T02:12:30.929Z,18.25
2017-07-11T02:13:32.349Z,18.21
2017-07-11T02:14:33.777Z,18.21
2017-07-11T02:15:35.194Z,18.39
2017-07-11T02:16:36.614Z,18.28
2017-07-11T02:17:38.036Z,18.27
2017-07-11T02:18:39.461Z,18.39
2017-07-11T02:19:40.975Z,18.39
2017-07-11T02:20:42.405Z,18.34
2017-07-11T02:21:43.824Z,18.27
2017-07-11T02:22:45.248Z,18.27
2017-07-11T02:23:46.667Z,18.43
2017-07-11T02:24:48.090Z,18.36
2017-07-11T02:25:49.522Z,18.34
2017-07-11T02:26:51.007Z,18.39
2017-07-11T02:27:52.428Z,18.40
2017-07-11T02:28:53.847Z,18.39
2017-07-11T02:29:55.281Z,18.46
2017-07-11T02:30:56.703Z,18.43
2017-07-11T02:31:58.137Z,18.34
2017-07-11T02:32:59.565Z,18.36
2017-07-11T02:34:00.992Z,18.27
2017-07-11T02:35:02.421Z,18.33
2017-07-11T02:36:03.844Z,18.19
2017-07-11T02:37:05.264Z,18.17
2017-07-11T02:38:06.685Z,18.13
2017-07-11T02:39:08.109Z,18.29
2017-07-11T02:40:09.528Z,18.31
2017-07-11T02:41:10.963Z,18.24
2017-07-11T02:42:12.385Z,18.29
2017-07-11T02:43:13.805Z,18.25
2017-07-11T02:44:15.226Z,18.21
2017-07-11T02:45:16.643Z,18.25
2017-07-11T02:46:18.066Z,18.18
2017-07-11T02:47:19.490Z,18.27
2017-07-11T02:48:20.915Z,18.21
2017-07-11T02:49:22.337Z,18.17
2017-07-11T02:50:23.769Z,18.28
2017-07-11T02:51:25.195Z,18.19
2017-07-11T02:52:26.617Z,18.25
2017-07-11T02:53:28.911Z,18.22
2017-07-11T02:54:30.333Z,18.19
2017-07-11T02:55:31.757Z,18.34
2017-07-11T02:56:33.182Z,18.27
2017-07-11T02:57:34.610Z,18.17
2017-07-11T02:58:36.033Z,18.06
2017-07-11T02:59:37.456Z,18.03
2017-07-11T03:00:38.883Z,17.92
2017-07-11T03:01:40.307Z,17.95
2017-07-11T03:02:41.727Z,17.92
2017-07-11T03:03:43.153Z,17.87
2017-07-11T03:04:45.503Z,17.99
2017-07-11T03:05:46.927Z,17.99
2017-07-11T03:06:48.345Z,17.97
2017-07-11T03:07:49.771Z,17.89
2017-07-11T03:08:51.199Z,17.84
2017-07-11T03:09:52.650Z,17.88
2017-07-11T03:10:54.071Z,17.94
2017-07-11T03:11:55.493Z,18.00
2017-07-11T03:12:56.921Z,17.85
2017-07-11T03:13:58.350Z,17.76
2017-07-11T03:14:59.777Z,17.71
2017-07-11T03:16:01.209Z,17.74
2017-07-11T03:17:02.634Z,17.74
2017-07-11T03:18:04.060Z,17.67
2017-07-11T03:19:05.481Z,17.64
2017-07-11T03:20:06.905Z,17.67
2017-07-11T03:21:08.331Z,17.54
2017-07-11T03:22:09.770Z,17.69
2017-07-11T03:23:11.181Z,17.63
2017-07-11T03:24:12.611Z,17.41
2017-07-11T03:25:14.036Z,17.33
2017-07-11T03:26:15.463Z,17.55
2017-07-11T03:27:16.884Z,17.41
2017-07-11T03:28:18.311Z,17.57
2017-07-11T03:29:19.730Z,17.50
2017-07-11T03:30:21.149Z,17.46
2017-07-11T03:31:22.571Z,17.47
2017-07-11T03:32:24.007Z,17.44
2017-07-11T03:33:25.429Z,17.54
2017-07-11T03:34:26.862Z,17.64
2017-07-11T03:35:28.284Z,17.53
2017-07-11T03:36:29.704Z,17.40
2017-07-11T03:37:31.127Z,17.44
2017-07-11T03:38:32.555Z,17.54
2017-07-11T03:39:33.979Z,17.47
2017-07-11T03:40:35.404Z,17.47
2017-07-11T03:41:36.827Z,17.57
2017-07-11T03:42:38.260Z,17.64
2017-07-11T03:43:39.688Z,17.44
2017-07-11T03:44:41.115Z,17.46
2017-07-11T03:45:42.552Z,17.36
2017-07-11T03:46:43.978Z,17.38
2017-07-11T03:47:45.416Z,17.22
2017-07-11T03:48:46.840Z,17.47
2017-07-11T03:49:48.259Z,17.35
2017-07-11T03:50:49.697Z,17.47
2017-07-11T03:51:51.127Z,17.62
2017-07-11T03:52:52.552Z,17.43
2017-07-11T03:53:53.974Z,17.43
2017-07-11T03:54:55.397Z,17.53
2017-07-11T03:55:56.821Z,17.41
2017-07-11T03:56:58.251Z,17.30
2017-07-11T03:57:59.678Z,17.44
2017-07-11T03:59:01.112Z,17.33
2017-07-11T04:00:02.533Z,17.46
2017-07-11T04:01:03.964Z,17.32
2017-07-11T04:02:05.397Z,17.29
2017-07-11T04:03:06.825Z,17.30
2017-07-11T04:04:08.254Z,17.46
2017-07-11T04:05:09.686Z,17.44
2017-07-11T04:06:11.141Z,17.46
2017-07-11T04:07:12.571Z,17.54
2017-07-11T04:08:13.993Z,17.44
2017-07-11T04:09:15.419Z,17.35
2017-07-11T04:10:16.855Z,17.36
2017-07-11T04:11:18.279Z,17.33
2017-07-11T04:12:19.708Z,17.40
2017-07-11T04:13:21.141Z,17.40
2017-07-11T04:14:22.581Z,17.47
2017-07-11T04:15:24.011Z,17.47
2017-07-11T04:16:25.428Z,17.51
2017-07-11T04:17:26.852Z,17.51
2017-07-11T04:18:28.343Z,17.54
2017-07-11T04:19:29.717Z,17.66
2017-07-11T04:20:31.154Z,17.41
2017-07-11T04:21:32.584Z,17.41
2017-07-11T04:22:34.011Z,17.50
2017-07-11T04:23:35.445Z,17.47
2017-07-11T04:24:36.879Z,17.41
2017-07-11T04:25:38.308Z,17.55
2017-07-11T04:26:39.734Z,17.54
2017-07-11T04:27:41.163Z,17.62
2017-07-11T04:28:42.595Z,17.70
2017-07-11T04:29:44.027Z,17.69
2017-07-11T04:30:45.451Z,17.66
2017-07-11T04:31:46.886Z,17.73
2017-07-11T04:32:48.311Z,17.67
2017-07-11T04:33:49.731Z,17.54
2017-07-11T04:34:51.161Z,17.59
2017-07-11T04:35:52.583Z,17.43
2017-07-11T04:36:54.009Z,17.50
2017-07-11T04:37:55.430Z,17.51
2017-07-11T04:38:56.860Z,17.62
2017-07-11T04:39:58.278Z,17.59
2017-07-11T04:40:59.711Z,17.55
2017-07-11T04:42:01.143Z,17.59
2017-07-11T04:43:02.571Z,17.53
2017-07-11T04:44:04.013Z,17.54
2017-07-11T04:45:05.432Z,17.51
2017-07-11T04:46:06.863Z,17.53
2017-07-11T04:47:08.286Z,17.66
2017-07-11T04:48:09.707Z,17.53
2017-07-11T04:49:11.135Z,17.69
2017-07-11T04:50:12.559Z,17.71
2017-07-11T04:51:13.997Z,17.74
2017-07-11T04:52:15.431Z,17.82
2017-07-11T04:53:16.856Z,17.67
2017-07-11T04:54:18.279Z,17.66
2017-07-11T04:55:19.700Z,17.74
2017-07-11T04:56:21.133Z,17.76
2017-07-11T04:57:22.557Z,17.59
2017-07-11T04:58:23.983Z,17.54
2017-07-11T04:59:25.413Z,17.69
2017-07-11T05:00:26.845Z,17.73
2017-07-11T05:01:28.276Z,17.71
2017-07-11T05:02:29.686Z,17.71
2017-07-11T05:03:31.112Z,17.73
2017-07-11T05:04:32.541Z,17.82
2017-07-11T05:05:33.983Z,17.71
2017-07-11T05:06:35.420Z,17.82
2017-07-11T05:07:36.840Z,17.88
2017-07-11T05:08:38.268Z,17.76
2017-07-11T05:09:39.692Z,17.76
2017-07-11T05:10:41.155Z,17.78
2017-07-11T05:11:43.158Z,17.71
2017-07-11T05:12:44.587Z,17.79
2017-07-11T05:13:46.022Z,17.76
2017-07-11T05:14:47.457Z,17.71
2017-07-11T05:15:48.880Z,17.73
2017-07-11T05:16:50.308Z,17.79
2017-07-11T05:17:51.731Z,17.73
2017-07-11T05:18:53.161Z,17.76
2017-07-11T05:19:54.595Z,17.76
2017-07-11T05:20:56.019Z,18.06
2017-07-11T05:21:57.446Z,18.03
2017-07-11T05:22:58.887Z,17.74
2017-07-11T05:24:00.317Z,17.87
2017-07-11T05:25:01.745Z,17.89
2017-07-11T05:26:03.169Z,17.99
2017-07-11T05:27:04.633Z,17.99
2017-07-11T05:28:06.058Z,17.95
2017-07-11T05:29:07.483Z,18.02
2017-07-11T05:30:08.910Z,18.13
2017-07-11T05:31:10.336Z,18.17
2017-07-11T05:32:11.769Z,18.27
2017-07-11T05:33:13.977Z,18.34
2017-07-11T05:34:15.420Z,18.43
2017-07-11T05:35:16.844Z,18.36
2017-07-11T05:36:18.274Z,18.33
2017-07-11T05:37:19.702Z,18.43
2017-07-11T05:38:21.130Z,18.52
2017-07-11T05:39:22.549Z,18.49
2017-07-11T05:40:23.986Z,18.52
2017-07-11T05:41:25.424Z,18.57
2017-07-11T05:42:26.866Z,18.44
2017-07-11T05:43:28.294Z,18.52
2017-07-11T05:44:29.718Z,18.65
2017-07-11T05:45:31.146Z,18.49
2017-07-11T05:46:32.671Z,18.55
2017-07-11T05:47:34.099Z,18.50
2017-07-11T05:48:35.524Z,18.52
2017-07-11T05:49:36.956Z,18.39
2017-07-11T05:50:38.386Z,18.49
2017-07-11T05:51:39.821Z,18.52
2017-07-11T05:52:41.250Z,18.55
2017-07-11T05:53:42.675Z,18.55
2017-07-11T05:54:44.104Z,18.49
2017-07-11T05:55:45.543Z,18.49
2017-07-11T05:56:46.973Z,18.44
2017-07-11T05:57:48.412Z,18.46
2017-07-11T05:58:49.838Z,18.34
2017-07-11T05:59:51.270Z,18.40
2017-07-11T06:00:52.707Z,18.39
2017-07-11T06:01:54.134Z,18.39
2017-07-11T06:02:55.564Z,18.42
2017-07-11T06:03:56.994Z,18.44
2017-07-11T06:04:58.424Z,18.47
2017-07-11T06:05:59.850Z,18.40
2017-07-11T06:07:01.276Z,18.44
2017-07-11T06:08:02.705Z,18.21
2017-07-11T06:09:04.141Z,18.27
2017-07-11T06:10:05.570Z,18.21
2017-07-11T06:11:07.001Z,18.22
2017-07-11T06:12:08.437Z,18.25
2017-07-11T06:13:09.865Z,18.46
2017-07-11T06:14:11.295Z,18.40
2017-07-11T06:15:12.725Z,18.42
2017-07-11T06:16:14.148Z,18.54
2017-07-11T06:17:15.573Z,18.67
2017-07-11T06:18:17.003Z,18.58
2017-07-11T06:19:18.429Z,18.74
2017-07-11T06:20:19.853Z,18.76
2017-07-11T06:21:21.286Z,18.72
2017-07-11T06:22:22.716Z,18.67
2017-07-11T06:23:24.144Z,18.84
2017-07-11T06:24:25.574Z,18.64
2017-07-11T06:25:27.001Z,18.62
2017-07-11T06:26:28.430Z,18.80
2017-07-11T06:27:29.873Z,18.72
2017-07-11T06:28:31.303Z,18.73
2017-07-11T06:29:32.723Z,18.80
2017-07-11T06:30:34.149Z,18.74
2017-07-11T06:31:35.585Z,18.61
2017-07-11T06:32:37.011Z,18.52
2017-07-11T06:33:38.433Z,18.61
2017-07-11T06:34:39.864Z,18.61
2017-07-11T06:35:41.291Z,18.62
2017-07-11T06:36:42.717Z,18.59
2017-07-11T06:37:44.147Z,18.47
2017-07-11T06:38:45.586Z,18.42
2017-07-11T06:39:47.004Z,18.42
2017-07-11T06:40:48.430Z,18.50
2017-07-11T06:41:49.866Z,18.62
2017-07-11T06:42:51.293Z,18.62
2017-07-11T06:43:52.724Z,18.46
2017-07-11T06:44:54.156Z,18.54
2017-07-11T06:45:55.582Z,18.36
2017-07-11T06:46:57.012Z,18.46
2017-07-11T06:47:58.447Z,18.58
2017-07-11T06:48:59.875Z,18.47
2017-07-11T06:50:01.877Z,18.44
2017-07-11T06:51:03.300Z,18.54
2017-07-11T06:52:04.742Z,18.44
2017-07-11T06:53:06.162Z,18.47
2017-07-11T06:54:07.596Z,18.54
2017-07-11T06:55:09.027Z,18.54
2017-07-11T06:56:10.453Z,18.54
2017-07-11T06:57:11.888Z,18.50
2017-07-11T06:58:13.316Z,18.57
2017-07-11T06:59:14.737Z,18.65
2017-07-11T07:00:16.164Z,18.82
2017-07-11T07:01:17.599Z,18.79
2017-07-11T07:02:19.031Z,18.79
2017-07-11T07:03:20.450Z,18.84
2017-07-11T07:04:21.884Z,18.86
2017-07-11T07:05:24.221Z,18.94
2017-07-11T07:06:25.642Z,18.86
2017-07-11T07:07:27.072Z,18.87
2017-07-11T07:08:28.490Z,18.84
2017-07-11T07:09:29.924Z,18.86
2017-07-11T07:10:31.351Z,18.74
2017-07-11T07:11:32.787Z,18.64
2017-07-11T07:12:34.209Z,18.54
2017-07-11T07:13:35.644Z,18.44
2017-07-11T07:14:37.069Z,18.61
2017-07-11T07:15:38.498Z,18.40
2017-07-11T07:16:39.929Z,18.54
2017-07-11T07:17:41.367Z,18.54
2017-07-11T07:18:42.789Z,18.44
2017-07-11T07:19:44.224Z,18.46
2017-07-11T07:20:45.652Z,18.54
2017-07-11T07:21:47.095Z,18.50
2017-07-11T07:22:48.519Z,18.49
2017-07-11T07:23:49.950Z,18.39
2017-07-11T07:24:51.387Z,18.40
2017-07-11T07:25:52.811Z,18.43
2017-07-11T07:26:54.239Z,18.46
2017-07-11T07:27:55.669Z,18.39
2017-07-11T07:28:57.095Z,18.21
2017-07-11T07:29:58.524Z,18.34
2017-07-11T07:30:59.958Z,18.46
2017-07-11T07:32:01.391Z,18.29
2017-07-11T07:33:02.828Z,18.43
2017-07-11T07:34:04.274Z,18.36
2017-07-11T07:35:05.701Z,18.43
2017-07-11T07:36:07.125Z,18.49
2017-07-11T07:37:08.550Z,18.59
2017-07-11T07:38:09.973Z,18.55
2017-07-11T07:39:11.403Z,18.46
2017-07-11T07:40:12.844Z,18.55
2017-07-11T07:41:14.273Z,18.40
2017-07-11T07:42:15.699Z,18.47
2017-07-11T07:43:17.136Z,18.49
2017-07-11T07:44:18.563Z,18.44
2017-07-11T07:45:19.992Z,18.54
2017-07-11T07:46:21.411Z,18.59
2017-07-11T07:47:22.836Z,18.57
2017-07-11T07:48:24.265Z,18.36
2017-07-11T07:49:25.685Z,18.54
2017-07-11T07:50:27.114Z,18.64
2017-07-11T07:51:28.545Z,18.64
2017-07-11T07:52:29.975Z,18.64
2017-07-11T07:53:31.405Z,18.83
2017-07-11T07:54:32.841Z,18.87
2017-07-11T07:55:34.268Z,18.87
2017-07-11T07:56:35.704Z,18.97
2017-07-11T07:57:37.132Z,18.97
2017-07-11T07:58:38.581Z,18.86
2017-07-11T07:59:40.015Z,18.91
2017-07-11T08:00:42.247Z,18.90
2017-07-11T08:01:43.673Z,18.97
2017-07-11T08:02:45.108Z,19.02
2017-07-11T08:03:46.543Z,19.13
2017-07-11T08:04:48.678Z,19.10
2017-07-11T08:05:50.101Z,19.21
2017-07-11T08:06:51.523Z,19.23
2017-07-11T08:07:56.563Z,19.08
2017-07-11T08:08:58.018Z,19.11
2017-07-11T08:09:59.455Z,19.10
2017-07-11T08:11:00.895Z,19.08
2017-07-11T08:12:02.333Z,19.28
2017-07-11T08:13:03.761Z,19.31
2017-07-11T08:14:05.189Z,19.20
2017-07-11T08:15:06.622Z,19.18
2017-07-11T08:16:08.057Z,19.25
2017-07-11T08:17:09.482Z,19.23
2017-07-11T08:18:10.915Z,19.17
2017-07-11T08:19:12.355Z,19.15
2017-07-11T08:20:13.785Z,19.06
2017-07-11T08:21:15.213Z,19.24
2017-07-11T08:22:16.644Z,19.06
2017-07-11T08:23:18.076Z,19.13
2017-07-11T08:24:19.508Z,19.14
2017-07-11T08:25:20.945Z,19.36
2017-07-11T08:26:22.383Z,19.39
2017-07-11T08:27:23.806Z,19.42
2017-07-11T08:28:25.241Z,19.40
2017-07-11T08:29:26.678Z,19.63
2017-07-11T08:30:28.102Z,19.69
2017-07-11T08:31:29.540Z,19.57
2017-07-11T08:32:30.987Z,19.58
2017-07-11T08:33:32.399Z,19.60
2017-07-11T08:34:33.836Z,19.66
2017-07-11T08:35:35.288Z,19.47
2017-07-11T08:36:36.714Z,19.54
2017-07-11T08:37:38.152Z,19.57
2017-07-11T08:38:39.589Z,19.86
2017-07-11T08:39:41.028Z,19.69
2017-07-11T08:40:42.466Z,19.95
2017-07-11T08:41:43.898Z,19.87
2017-07-11T08:42:45.328Z,19.88
2017-07-11T08:43:46.757Z,19.95
2017-07-11T08:44:48.194Z,20.06
2017-07-11T08:45:49.626Z,20.05
2017-07-11T08:46:51.048Z,19.95
2017-07-11T08:47:52.484Z,20.06
2017-07-11T08:48:53.922Z,19.94
2017-07-11T08:49:55.350Z,20.03
2017-07-11T08:50:56.787Z,19.93
2017-07-11T08:51:58.221Z,19.84
2017-07-11T08:52:59.651Z,19.72
2017-07-11T08:54:01.111Z,19.72
2017-07-11T08:55:02.537Z,19.61
2017-07-11T08:56:03.971Z,19.61
2017-07-11T08:57:05.401Z,19.51
2017-07-11T08:58:06.833Z,19.86
2017-07-11T08:59:08.265Z,19.80
2017-07-11T09:00:09.687Z,19.93
2017-07-11T09:01:11.115Z,20.02
2017-07-11T09:02:12.542Z,20.10
2017-07-11T09:03:13.976Z,20.34
2017-07-11T09:04:15.415Z,20.39
2017-07-11T09:05:16.858Z,20.41
2017-07-11T09:06:18.297Z,20.65
2017-07-11T09:07:19.727Z,20.39
2017-07-11T09:08:21.162Z,20.41
2017-07-11T09:09:22.597Z,20.49
2017-07-11T09:10:24.022Z,20.61
2017-07-11T09:11:25.463Z,20.51
2017-07-11T09:12:26.899Z,20.42
2017-07-11T09:13:28.327Z,20.65
2017-07-11T09:14:29.758Z,20.77
2017-07-11T09:15:31.197Z,20.72
2017-07-11T09:16:32.623Z,20.77
2017-07-11T09:17:34.052Z,21.06
2017-07-11T09:18:35.478Z,21.17
2017-07-11T09:19:36.905Z,21.01
2017-07-11T09:20:38.336Z,20.90
2017-07-11T09:21:39.771Z,21.05
2017-07-11T09:22:41.202Z,21.01
2017-07-11T09:23:42.633Z,20.95
2017-07-11T09:24:44.069Z,20.90
2017-07-11T09:25:45.505Z,20.66
2017-07-11T09:26:47.053Z,20.72
2017-07-11T09:27:48.486Z,20.66
2017-07-11T09:28:49.914Z,20.93
2017-07-11T09:29:51.404Z,21.05
2017-07-11T09:30:52.869Z,20.90
2017-07-11T09:31:54.311Z,20.95
2017-07-11T09:32:55.744Z,20.96
2017-07-11T09:33:57.177Z,21.01
2017-07-11T09:34:58.610Z,21.06
2017-07-11T09:36:00.032Z,21.13
2017-07-11T09:37:02.019Z,21.17
2017-07-11T09:38:03.457Z,21.23
2017-07-11T09:39:04.879Z,21.36
2017-07-11T09:40:06.305Z,21.46
2017-07-11T09:41:07.737Z,21.48
2017-07-11T09:42:09.177Z,21.39
2017-07-11T09:43:10.601Z,21.59
2017-07-11T09:44:12.034Z,21.34
2017-07-11T09:45:13.462Z,21.56
2017-07-11T09:46:14.890Z,21.78
2017-07-11T09:47:16.336Z,21.82
2017-07-11T09:48:17.771Z,21.83
2017-07-11T09:49:19.205Z,21.87
2017-07-11T09:50:20.635Z,22.17
2017-07-11T09:51:22.075Z,22.20
2017-07-11T09:52:23.508Z,22.31
2017-07-11T09:53:24.936Z,22.46
2017-07-11T09:54:26.373Z,22.53
2017-07-11T09:55:27.806Z,22.38
2017-07-11T09:56:29.237Z,22.32
2017-07-11T09:57:30.670Z,22.28
2017-07-11T09:58:32.636Z,22.19
2017-07-11T09:59:34.077Z,22.44
2017-07-11T10:00:35.515Z,22.46
2017-07-11T10:01:36.943Z,22.49
2017-07-11T10:02:38.372Z,22.82
2017-07-11T10:03:39.801Z,22.82
2017-07-11T10:04:41.235Z,22.62
2017-07-11T10:05:42.674Z,22.50
2017-07-11T10:06:44.104Z,22.64
2017-07-11T10:07:45.533Z,22.67
2017-07-11T10:08:46.961Z,22.59
2017-07-11T10:09:48.395Z,22.52
2017-07-11T10:10:49.824Z,22.56
2017-07-11T10:11:51.268Z,22.87
2017-07-11T10:12:52.695Z,22.74
2017-07-11T10:13:54.131Z,22.78
2017-07-11T10:14:55.563Z,22.67
2017-07-11T10:15:56.992Z,22.50
2017-07-11T10:16:58.424Z,22.29
2017-07-11T10:17:59.856Z,22.28
2017-07-11T10:19:01.282Z,22.44
2017-07-11T10:20:03.673Z,22.44
2017-07-11T10:21:05.104Z,22.47
2017-07-11T10:22:06.539Z,22.60
2017-07-11T10:23:07.977Z,22.75
2017-07-11T10:24:09.409Z,22.93
2017-07-11T10:25:10.844Z,22.86
2017-07-11T10:26:12.280Z,22.94
2017-07-11T10:27:13.719Z,22.89
2017-07-11T10:28:15.153Z,23.04
2017-07-11T10:29:16.587Z,23.02
2017-07-11T10:30:18.021Z,23.27
2017-07-11T10:31:19.459Z,23.45
2017-07-11T10:32:20.891Z,23.19
2017-07-11T10:33:22.324Z,23.64
2017-07-11T10:34:23.755Z,23.49
2017-07-11T10:35:25.196Z,23.09
2017-07-11T10:36:26.626Z,23.11
2017-07-11T10:37:28.058Z,23.05
2017-07-11T10:38:29.487Z,22.65
2017-07-11T10:39:30.924Z,22.67
2017-07-11T10:40:32.354Z,22.71
2017-07-11T10:41:33.786Z,23.05
2017-07-11T10:42:35.228Z,23.40
2017-07-11T10:43:36.661Z,23.52
2017-07-11T10:44:38.105Z,23.57
2017-07-11T10:45:39.534Z,23.60
2017-07-11T10:46:40.963Z,23.90
2017-07-11T10:47:42.392Z,24.01
2017-07-11T10:48:43.824Z,24.47
2017-07-11T10:49:45.259Z,24.44
2017-07-11T10:50:46.695Z,24.54
2017-07-11T10:51:48.133Z,24.75
2017-07-11T10:52:49.570Z,24.94
2017-07-11T10:53:51.004Z,24.77
2017-07-11T10:54:52.435Z,24.77
2017-07-11T10:55:53.871Z,24.91
2017-07-11T10:56:55.305Z,25.06
2017-07-11T10:57:56.748Z,24.76
2017-07-11T10:58:58.186Z,25.00
2017-07-11T10:59:59.630Z,24.98
2017-07-11T11:01:01.065Z,25.20
2017-07-11T11:02:02.497Z,25.57
2017-07-11T11:03:03.931Z,25.46
2017-07-11T11:04:05.362Z,25.57
2017-07-11T11:05:06.808Z,25.31
2017-07-11T11:06:08.247Z,25.02
2017-07-11T11:07:09.676Z,24.59
2017-07-11T11:08:11.120Z,24.41
2017-07-11T11:09:12.555Z,24.75
2017-07-11T11:10:13.996Z,24.80
2017-07-11T11:11:15.437Z,24.67
2017-07-11T11:12:16.872Z,25.06
2017-07-11T11:13:18.300Z,25.37
2017-07-11T11:14:19.736Z,25.42
2017-07-11T11:15:21.175Z,24.92
2017-07-11T11:16:22.614Z,24.83
2017-07-11T11:17:24.045Z,24.64
2017-07-11T11:18:25.484Z,24.24
2017-07-11T11:19:26.913Z,23.76
2017-07-11T11:20:28.344Z,23.80
2017-07-11T11:21:29.785Z,23.70
2017-07-11T11:22:31.219Z,23.83
2017-07-11T11:23:32.654Z,23.67
2017-07-11T11:24:34.093Z,23.70
2017-07-11T11:25:35.536Z,24.45
2017-07-11T11:26:36.976Z,24.94
2017-07-11T11:27:38.406Z,25.43
2017-07-11T11:28:39.849Z,25.84
2017-07-11T11:29:41.284Z,26.24
2017-07-11T11:30:42.725Z,25.98
2017-07-11T11:31:44.175Z,26.20
2017-07-11T11:32:45.610Z,25.79
2017-07-11T11:33:47.047Z,25.89
2017-07-11T11:34:48.487Z,25.64
2017-07-11T11:35:49.962Z,25.90
2017-07-11T11:36:51.402Z,26.01
2017-07-11T11:37:52.842Z,26.04
2017-07-11T11:38:54.277Z,25.71
2017-07-11T11:39:55.744Z,25.75
2017-07-11T11:40:57.191Z,25.56
2017-07-11T11:41:58.630Z,25.54
2017-07-11T11:43:00.062Z,25.54
2017-07-11T11:44:01.494Z,25.28
2017-07-11T11:45:02.932Z,25.10
2017-07-11T11:46:04.350Z,24.79
2017-07-11T11:47:05.802Z,24.50
2017-07-11T11:48:07.241Z,24.63
2017-07-11T11:49:08.674Z,24.98
2017-07-11T11:50:10.103Z,25.42
2017-07-11T11:51:11.549Z,25.79
2017-07-11T11:52:12.989Z,25.50
2017-07-11T11:53:14.467Z,25.65
2017-07-11T11:54:15.901Z,25.22
2017-07-11T11:55:17.334Z,25.38
2017-07-11T11:56:18.777Z,25.68
2017-07-11T11:57:20.211Z,25.82
2017-07-11T11:58:21.647Z,26.02
2017-07-11T11:59:23.078Z,25.74
2017-07-11T12:00:24.517Z,26.01
2017-07-11T12:01:25.950Z,26.29
2017-07-11T12:02:27.385Z,26.21
2017-07-11T12:03:28.814Z,26.02
2017-07-11T12:04:30.331Z,26.42
2017-07-11T12:05:31.710Z,26.74
2017-07-11T12:06:33.142Z,26.86
2017-07-11T12:07:34.592Z,26.74
2017-07-11T12:08:36.028Z,26.20
2017-07-11T12:09:37.462Z,26.22
2017-07-11T12:10:38.897Z,26.55
2017-07-11T12:11:40.336Z,26.18
2017-07-11T12:12:41.780Z,26.36
2017-07-11T12:13:43.228Z,26.29
2017-07-11T12:14:44.664Z,26.39
2017-07-11T12:15:46.105Z,26.28
2017-07-11T12:16:47.548Z,26.09
2017-07-11T12:17:48.980Z,26.04
2017-07-11T12:18:50.418Z,26.29
2017-07-11T12:19:51.842Z,26.55
2017-07-11T12:20:53.276Z,26.77
2017-07-11T12:21:54.717Z,26.79
2017-07-11T12:22:56.175Z,26.84
2017-07-11T12:23:58.331Z,26.83
2017-07-11T12:24:59.775Z,26.95
2017-07-11T12:26:01.207Z,26.59
2017-07-11T12:27:02.663Z,26.42
2017-07-11T12:28:04.096Z,26.47
2017-07-11T12:29:05.529Z,26.24
2017-07-11T12:30:06.976Z,26.22
2017-07-11T12:31:08.410Z,25.80
2017-07-11T12:32:09.844Z,25.79
2017-07-11T12:33:11.281Z,25.84
2017-07-11T12:34:12.720Z,25.89
2017-07-11T12:35:14.183Z,25.97
2017-07-11T12:36:15.605Z,25.82
2017-07-11T12:37:17.043Z,25.68
2017-07-11T12:38:18.478Z,25.82
2017-07-11T12:39:19.909Z,25.69
2017-07-11T12:40:22.139Z,25.56
2017-07-11T12:41:23.574Z,25.72
2017-07-11T12:42:25.015Z,25.82
2017-07-11T12:43:26.471Z,25.46
2017-07-11T12:44:27.903Z,25.38
2017-07-11T12:45:29.333Z,25.82
2017-07-11T12:46:30.770Z,25.83
2017-07-11T12:47:32.213Z,25.80
2017-07-11T12:48:33.645Z,25.82
2017-07-11T12:49:35.091Z,25.64
2017-07-11T12:50:37.311Z,25.25
2017-07-11T12:51:38.817Z,25.13
2017-07-11T12:52:40.258Z,25.02
2017-07-11T12:53:41.702Z,25.07
2017-07-11T12:54:43.142Z,24.98
2017-07-11T12:55:44.570Z,24.87
2017-07-11T12:56:46.004Z,24.92
2017-07-11T12:57:47.485Z,24.67
2017-07-11T12:58:48.929Z,24.71
2017-07-11T12:59:50.370Z,24.80
2017-07-11T13:00:51.845Z,24.64
2017-07-11T13:01:53.301Z,24.85
2017-07-11T13:02:54.741Z,24.77
2017-07-11T13:03:56.175Z,24.63
2017-07-11T13:04:57.615Z,24.69
2017-07-11T13:05:59.099Z,24.75
2017-07-11T13:07:00.879Z,25.07
2017-07-11T13:08:02.369Z,25.05
2017-07-11T13:09:03.816Z,24.92
2017-07-11T13:10:05.332Z,24.80
2017-07-11T13:11:06.779Z,24.82